Time;durP1;ratioP1;P1;durP2;ratioP2;P2;SDS_P1;SDS_P2;PMS_P1;PMS_P2;Temp;Humidity;BMP_temperature;BMP_pressure;BME280_temperature;BME280_humidity;BME280_pressure;Samples;Min_cycle;Max_cycle;Signal;HPM_P1;HPM_P2
2022/03/15 00:00:20;;;;;;;1.27;0.70;;;;;;;-1.16;53.36;101123.63;5105686;28;20051;-61
2022/03/15 00:02:46;;;;;;;0.60;0.45;;;;;;;-1.04;53.40;101125.91;5104681;28;20069;-61
2022/03/15 00:05:12;;;;;;;0.93;0.60;;;;;;;-1.03;53.63;101125.09;5105710;28;20352;-60
2022/03/15 00:07:37;;;;;;;0.80;0.80;;;;;;;-1.19;53.39;101120.06;5105428;28;20181;-60
2022/03/15 00:10:04;;;;;;;1.38;0.60;;;;;;;-1.15;53.17;101132.13;5105529;28;20081;-60
2022/03/15 00:12:30;;;;;;;0.65;0.50;;;;;;;-0.97;54.20;101129.59;5105455;28;20032;-59
2022/03/15 00:14:55;;;;;;;4.10;0.52;;;;;;;-1.01;54.16;101131.13;5105465;28;20030;-59
2022/03/15 00:17:22;;;;;;;0.70;0.50;;;;;;;-1.17;54.05;101136.25;5105423;28;20016;-59
2022/03/15 00:19:47;;;;;;;0.50;0.47;;;;;;;-1.22;53.58;101138.56;5105489;28;20024;-59
2022/03/15 00:22:14;;;;;;;0.50;0.40;;;;;;;-1.13;53.91;101135.59;5105359;28;20048;-60
2022/03/15 00:24:41;;;;;;;3.25;0.50;;;;;;;-1.27;53.45;101122.22;5104256;28;20344;-60
2022/03/15 00:27:07;;;;;;;0.40;0.40;;;;;;;-1.19;52.67;101142.94;5105168;28;20020;-59
2022/03/15 00:29:32;;;;;;;0.45;0.40;;;;;;;-1.16;52.93;101143.94;5104979;28;20022;-59
2022/03/15 00:31:58;;;;;;;0.50;0.50;;;;;;;-1.31;52.80;101150.81;5105206;28;20024;-59
2022/03/15 00:34:24;;;;;;;0.50;0.50;;;;;;;-1.24;53.59;101151.19;5105151;28;20036;-59
2022/03/15 00:36:49;;;;;;;0.52;0.35;;;;;;;-1.29;52.87;101146.69;5105073;28;20336;-59
2022/03/15 00:39:16;;;;;;;0.40;0.40;;;;;;;-1.28;53.20;101149.31;5105037;28;20020;-60
2022/03/15 00:41:42;;;;;;;0.60;0.40;;;;;;;-1.31;53.10;101156.78;5105031;28;20091;-59
2022/03/15 00:44:08;;;;;;;0.52;0.50;;;;;;;-1.42;53.12;101150.28;5104929;28;20044;-60
2022/03/15 00:46:33;;;;;;;1.05;0.50;;;;;;;-1.44;53.12;101167.09;5104970;28;20024;-60
2022/03/15 00:48:59;;;;;;;0.40;0.40;;;;;;;-1.68;53.14;101143.84;5104910;28;20201;-59
2022/03/15 00:51:25;;;;;;;0.68;0.40;;;;;;;-1.48;53.79;101160.09;5103635;28;20032;-59
2022/03/15 00:53:50;;;;;;;0.50;0.50;;;;;;;-1.44;53.39;101167.97;5104519;28;20024;-59
2022/03/15 00:56:16;;;;;;;1.10;0.45;;;;;;;-1.53;53.09;101164.09;5104590;28;20027;-60
2022/03/15 00:58:41;;;;;;;0.75;0.40;;;;;;;-1.37;53.04;101169.16;5104652;28;20109;-59
2022/03/15 01:01:07;;;;;;;0.40;0.40;;;;;;;-1.55;52.97;101169.09;5104566;28;20032;-59
2022/03/15 01:03:33;;;;;;;0.43;0.40;;;;;;;-1.63;53.94;101176.31;5104528;28;20034;-59
2022/03/15 01:05:59;;;;;;;3.08;0.70;;;;;;;-1.51;53.18;101171.00;5104511;28;20066;-59
2022/03/15 01:08:25;;;;;;;1.02;0.57;;;;;;;-1.52;53.58;101174.31;5104222;28;20027;-59
2022/03/15 01:10:51;;;;;;;0.52;0.50;;;;;;;-1.61;52.87;101178.91;5104221;28;20036;-59
2022/03/15 01:13:17;;;;;;;0.82;0.60;;;;;;;-1.67;54.02;101159.16;5104151;28;20480;-58
2022/03/15 01:15:44;;;;;;;0.40;0.40;;;;;;;-1.64;52.94;101164.41;5104356;28;20031;-60
2022/03/15 01:18:13;;;;;;;0.70;0.30;;;;;;;-1.47;53.10;101184.72;5104422;28;20074;-59
2022/03/15 01:20:40;;;;;;;0.30;0.30;;;;;;;-1.59;53.48;101183.28;5099012;28;20031;-59
2022/03/15 01:23:06;;;;;;;0.68;0.45;;;;;;;-1.58;52.83;101179.09;5087641;28;20036;-59
2022/03/15 01:25:32;;;;;;;1.25;0.50;;;;;;;-1.49;52.64;101184.66;5089237;28;20026;-60
2022/03/15 01:27:58;;;;;;;1.55;0.50;;;;;;;-1.52;52.33;101183.63;5104123;28;20027;-60
2022/03/15 01:30:23;;;;;;;0.80;0.60;;;;;;;-1.60;53.37;101173.06;5103952;28;20020;-60
2022/03/15 01:32:49;;;;;;;0.70;0.68;;;;;;;-1.49;53.58;101187.19;5102891;28;20221;-60
2022/03/15 01:35:15;;;;;;;0.63;0.63;;;;;;;-1.63;53.95;101180.50;5103623;28;20035;-60
2022/03/15 01:37:40;;;;;;;0.68;0.52;;;;;;;-1.65;54.30;101193.13;5102819;28;20085;-60
2022/03/15 01:40:06;;;;;;;0.75;0.70;;;;;;;-1.69;54.52;101186.16;5103968;28;20023;-58
2022/03/15 01:42:32;;;;;;;0.70;0.60;;;;;;;-1.55;54.30;101197.03;5104010;28;20024;-60
2022/03/15 01:45:02;;;;;;;1.08;0.63;;;;;;;-2.01;54.58;101133.66;5104017;28;20061;-59
2022/03/15 01:47:28;;;;;;;1.48;0.40;;;;;;;-1.69;53.05;101192.91;5103963;28;20032;-59
2022/03/15 01:49:54;;;;;;;0.60;0.57;;;;;;;-1.60;53.39;101203.53;5103708;28;20331;-59
2022/03/15 01:52:19;;;;;;;0.85;0.70;;;;;;;-1.70;54.47;101201.31;5103834;28;20020;-59
2022/03/15 01:54:46;;;;;;;0.80;0.63;;;;;;;-1.58;55.62;101204.50;5101602;28;20247;-58
2022/03/15 01:57:12;;;;;;;0.60;0.60;;;;;;;-1.52;54.11;101207.34;5101940;28;20020;-59
2022/03/15 01:59:39;;;;;;;1.88;0.70;;;;;;;-1.58;54.52;101204.50;5101899;28;20579;-60
2022/03/15 02:02:05;;;;;;;2.25;0.90;;;;;;;-1.53;53.98;101214.91;5101722;28;20321;-60
2022/03/15 02:04:32;;;;;;;1.63;0.80;;;;;;;-1.57;54.85;101212.19;5102582;28;20387;-60
2022/03/15 02:07:06;;;;;;;0.88;0.77;;;;;;;-2.11;54.45;101153.50;5102865;28;20035;-60
2022/03/15 02:09:32;;;;;;;0.60;0.60;;;;;;;-1.64;54.34;101230.44;5102967;28;20054;-61
2022/03/15 02:11:58;;;;;;;0.60;0.60;;;;;;;-1.55;54.71;101235.13;5103523;28;20032;-60
2022/03/15 02:14:25;;;;;;;2.08;0.70;;;;;;;-1.69;54.16;101229.31;5103465;28;20062;-61
2022/03/15 02:16:50;;;;;;;1.33;0.80;;;;;;;-1.62;54.22;101236.47;5103720;28;20068;-61
2022/03/15 02:19:16;;;;;;;0.90;0.50;;;;;;;-1.69;54.46;101236.94;5103491;28;20024;-61
2022/03/15 02:21:42;;;;;;;0.70;0.70;;;;;;;-1.78;54.03;101234.78;5103355;28;20031;-61
2022/03/15 02:24:07;;;;;;;1.27;0.85;;;;;;;-1.76;54.42;101247.56;5103006;28;20048;-61
2022/03/15 02:26:33;;;;;;;0.80;0.80;;;;;;;-1.75;54.30;101240.03;5097559;28;20024;-60
2022/03/15 02:28:59;;;;;;;0.95;0.65;;;;;;;-1.81;54.04;101242.25;5102033;28;20024;-61
2022/03/15 02:31:24;;;;;;;1.08;0.75;;;;;;;-1.91;54.21;101250.13;5103355;28;20370;-61
2022/03/15 02:33:50;;;;;;;0.70;0.70;;;;;;;-1.87;54.58;101249.50;5103191;28;20057;-60
2022/03/15 02:36:17;;;;;;;0.80;0.80;;;;;;;-1.84;54.99;101248.81;5103302;28;20050;-62
2022/03/15 02:38:44;;;;;;;1.08;0.93;;;;;;;-1.80;54.54;101259.19;5103283;28;20087;-61
2022/03/15 02:41:10;;;;;;;0.90;0.90;;;;;;;-1.81;54.82;101251.50;5102890;28;20091;-62
2022/03/15 02:43:36;;;;;;;1.60;1.00;;;;;;;-1.74;55.01;101248.50;5103197;28;20349;-61
2022/03/15 02:46:02;;;;;;;2.63;1.73;;;;;;;-1.78;54.53;101246.59;5101534;28;20103;-61
2022/03/15 02:48:27;;;;;;;0.82;0.75;;;;;;;-1.92;53.63;101245.88;5105307;28;20035;-62
2022/03/15 02:50:55;;;;;;;1.75;0.90;;;;;;;-2.00;54.38;101259.78;5105467;28;20392;-60
2022/03/15 02:53:20;;;;;;;2.88;1.00;;;;;;;-1.91;54.01;101265.34;5106090;28;20028;-61
2022/03/15 02:55:46;;;;;;;1.10;1.00;;;;;;;-2.02;53.84;101263.91;5106608;28;20039;-61
2022/03/15 02:58:12;;;;;;;2.67;1.10;;;;;;;-2.08;54.09;101247.56;5105694;28;20024;-60
2022/03/15 03:00:38;;;;;;;1.52;1.20;;;;;;;-1.98;54.71;101266.72;5106889;28;20099;-61
2022/03/15 03:03:04;;;;;;;1.23;1.00;;;;;;;-1.98;54.11;101248.94;5105821;28;20024;-61
2022/03/15 03:05:30;;;;;;;2.75;1.08;;;;;;;-1.93;54.71;101259.34;5106799;28;20016;-62
2022/03/15 03:07:55;;;;;;;1.00;0.90;;;;;;;-2.11;54.37;101262.63;5100833;28;20062;-61
2022/03/15 03:10:21;;;;;;;1.25;0.80;;;;;;;-2.17;53.85;101251.25;5086242;28;20028;-61
2022/03/15 03:12:49;;;;;;;1.52;1.02;;;;;;;-1.95;55.14;101269.41;5086487;28;20035;-61
2022/03/15 03:15:20;;;;;;;1.40;1.05;;;;;;;-2.07;53.87;101268.72;5086307;28;20052;-62
2022/03/15 03:17:46;;;;;;;2.90;1.10;;;;;;;-2.06;54.02;101274.69;5089617;28;20267;-62
2022/03/15 03:20:15;;;;;;;3.50;1.00;;;;;;;-2.06;53.66;101278.09;5106579;28;20036;-60
2022/03/15 03:22:41;;;;;;;3.03;0.98;;;;;;;-2.09;53.42;101280.47;5106470;28;20312;-61
2022/03/15 03:25:08;;;;;;;1.98;1.30;;;;;;;-2.07;54.04;101283.94;5106569;28;20032;-61
2022/03/15 03:27:34;;;;;;;1.30;1.20;;;;;;;-2.15;53.41;101291.16;5106460;28;20031;-61
2022/03/15 03:30:00;;;;;;;3.15;1.10;;;;;;;-2.19;53.37;101281.63;5106421;28;20028;-62
2022/03/15 03:32:27;;;;;;;4.07;1.02;;;;;;;-2.10;52.95;101287.19;5106183;28;20073;-62
2022/03/15 03:34:53;;;;;;;1.63;0.98;;;;;;;-2.04;54.37;101298.47;5106234;28;20024;-62
2022/03/15 03:37:19;;;;;;;3.70;1.10;;;;;;;-2.24;53.59;101283.00;5106237;28;20338;-62
2022/03/15 03:39:45;;;;;;;1.88;1.20;;;;;;;-2.16;53.32;101298.69;5105021;28;20411;-61
2022/03/15 03:42:12;;;;;;;1.48;1.02;;;;;;;-2.34;53.33;101298.50;5106097;28;20023;-62
2022/03/15 03:44:40;;;;;;;4.35;1.10;;;;;;;-2.23;53.87;101306.75;5106150;28;20272;-62
2022/03/15 03:47:06;;;;;;;1.85;1.30;;;;;;;-2.17;54.00;101307.06;5105848;28;20031;-63
2022/03/15 03:49:32;;;;;;;2.33;1.45;;;;;;;-2.19;53.15;101313.75;5105942;28;20321;-62
2022/03/15 03:51:58;;;;;;;3.25;1.30;;;;;;;-2.29;52.49;101308.13;5105963;28;20020;-62
2022/03/15 03:54:24;;;;;;;2.63;1.10;;;;;;;-2.33;53.46;101325.63;5085506;28;20028;-62
2022/03/15 03:56:51;;;;;;;1.20;1.10;;;;;;;-2.26;54.31;101317.59;5085611;28;20092;-62
2022/03/15 03:59:17;;;;;;;2.25;1.30;;;;;;;-2.33;53.41;101329.03;5085221;28;20062;-61
2022/03/15 04:01:43;;;;;;;1.88;1.23;;;;;;;-2.26;54.23;101318.44;5092379;28;20200;-61
2022/03/15 04:04:10;;;;;;;1.55;1.20;;;;;;;-2.33;53.43;101329.03;5104561;28;20118;-62
2022/03/15 04:06:39;;;;;;;2.25;1.20;;;;;;;-2.38;53.07;101330.44;5105671;28;20047;-61
2022/03/15 04:09:06;;;;;;;1.85;1.30;;;;;;;-2.52;53.45;101339.78;5105246;28;20031;-60
2022/03/15 04:11:32;;;;;;;1.27;1.08;;;;;;;-2.58;53.77;101329.25;5104665;28;20071;-62
2022/03/15 04:14:03;;;;;;;2.90;1.33;;;;;;;-2.61;52.92;101319.84;5105297;28;20039;-60
2022/03/15 04:16:30;;;;;;;3.55;1.20;;;;;;;-2.54;53.39;101335.41;5105438;28;20292;-62
2022/03/15 04:18:56;;;;;;;1.48;1.08;;;;;;;-2.72;53.24;101341.16;5105336;28;20039;-62
2022/03/15 04:21:24;;;;;;;1.17;1.08;;;;;;;-2.58;54.26;101339.41;5104590;28;20087;-61
2022/03/15 04:23:55;;;;;;;4.00;1.25;;;;;;;-2.64;53.37;101328.91;5105252;28;20309;-62
2022/03/15 04:26:22;;;;;;;4.28;1.33;;;;;;;-2.54;53.53;101340.47;5105295;28;20039;-61
2022/03/15 04:28:47;;;;;;;1.55;0.85;;;;;;;-2.48;54.07;101345.91;5105112;28;20024;-61
2022/03/15 04:31:13;;;;;;;3.90;1.20;;;;;;;-2.41;54.05;101340.38;5105272;28;20073;-62
2022/03/15 04:33:39;;;;;;;2.50;1.17;;;;;;;-2.54;52.95;101337.94;5105027;28;20047;-63
2022/03/15 04:36:06;;;;;;;1.30;1.20;;;;;;;-2.66;54.13;101351.66;5105006;28;20368;-61
2022/03/15 04:38:32;;;;;;;2.80;1.23;;;;;;;-2.60;54.17;101354.53;5104938;28;20075;-60
2022/03/15 04:40:59;;;;;;;2.55;1.20;;;;;;;-2.78;54.30;101345.84;5104878;28;20305;-63
2022/03/15 04:43:25;;;;;;;3.63;1.60;;;;;;;-2.72;54.24;101343.69;5120681;28;20052;-62
2022/03/15 04:45:50;;;;;;;2.33;1.10;;;;;;;-2.76;53.92;101344.28;5104748;28;20020;-61
2022/03/15 04:48:18;;;;;;;1.40;1.23;;;;;;;-2.87;54.20;101352.91;5103575;28;20031;-62
2022/03/15 04:50:44;;;;;;;1.23;1.10;;;;;;;-2.92;54.46;101350.09;5103555;28;20031;-61
2022/03/15 04:53:10;;;;;;;1.80;1.30;;;;;;;-2.89;54.48;101352.81;5104252;28;20317;-61
2022/03/15 04:55:35;;;;;;;3.67;1.25;;;;;;;-2.84;54.52;101346.34;5104540;28;20028;-61
2022/03/15 04:58:01;;;;;;;2.78;1.20;;;;;;;-2.67;54.02;101351.56;5104439;28;20032;-61
2022/03/15 05:00:26;;;;;;;3.78;1.27;;;;;;;-2.64;54.46;101357.69;5104285;28;20332;-62
2022/03/15 05:02:52;;;;;;;10.27;1.80;;;;;;;-2.56;54.74;101355.59;5103180;28;20031;-61
2022/03/15 05:05:18;;;;;;;4.40;1.30;;;;;;;-2.49;54.36;101362.78;5104341;28;20264;-60
2022/03/15 05:07:43;;;;;;;4.00;1.27;;;;;;;-2.38;54.58;101363.44;5104241;28;20028;-61
2022/03/15 05:12:54;;;;;;;4.38;1.40;;;;;;;-2.36;54.80;101371.97;5104201;28;20034;-62
2022/03/15 05:15:20;;;;;;;2.80;1.30;;;;;;;-2.65;54.38;101372.78;5103868;28;20024;-62
2022/03/15 05:17:46;;;;;;;1.52;1.10;;;;;;;-2.77;55.26;101376.34;5104022;28;20044;-62
2022/03/15 05:20:14;;;;;;;3.35;1.60;;;;;;;-2.56;55.23;101382.63;5103492;28;20343;-63
2022/03/15 05:22:39;;;;;;;3.63;1.40;;;;;;;-2.54;55.25;101381.06;5103819;28;20028;-62
2022/03/15 05:25:06;;;;;;;4.07;1.38;;;;;;;-2.51;54.74;101376.16;5102697;28;20020;-61
2022/03/15 05:27:33;;;;;;;2.30;1.50;;;;;;;-2.47;55.41;101378.09;5103479;28;20035;-61
2022/03/15 05:30:02;;;;;;;7.70;1.52;;;;;;;-2.57;54.73;101379.22;5103302;28;20081;-61
2022/03/15 05:32:29;;;;;;;10.13;2.03;;;;;;;-2.58;55.88;101376.59;5102268;28;20028;-62
2022/03/15 05:34:55;;;;;;;7.57;1.80;;;;;;;-2.35;54.90;101383.91;5103608;28;20340;-61
2022/03/15 05:37:20;;;;;;;5.13;1.42;;;;;;;-2.18;55.08;101389.06;5103905;28;20032;-61
2022/03/15 05:39:46;;;;;;;4.32;1.70;;;;;;;-2.22;54.96;101379.50;5103611;28;20027;-61
2022/03/15 05:42:12;;;;;;;4.03;1.63;;;;;;;-2.26;55.09;101383.56;5103487;28;20031;-62
2022/03/15 05:44:39;;;;;;;3.00;1.67;;;;;;;-2.17;55.02;101383.19;5103659;28;20042;-62
2022/03/15 05:47:05;;;;;;;2.30;1.33;;;;;;;-2.34;55.48;101380.56;5103496;28;20032;-62
2022/03/15 05:49:30;;;;;;;2.85;1.58;;;;;;;-2.08;55.38;101378.69;5103189;28;20024;-62
2022/03/15 05:51:56;;;;;;;5.32;1.67;;;;;;;-2.01;55.16;101388.38;5103229;28;20024;-62
2022/03/15 05:54:22;;;;;;;6.63;1.50;;;;;;;-1.97;55.00;101387.75;5103168;28;20154;-62
2022/03/15 05:56:47;;;;;;;8.77;1.80;;;;;;;-1.82;55.55;101389.44;5103458;28;20251;-61
2022/03/15 05:59:13;;;;;;;8.38;1.70;;;;;;;-1.70;54.96;101399.38;5102842;28;20079;-61
2022/03/15 06:01:39;;;;;;;3.00;1.48;;;;;;;-1.72;55.21;101404.38;5102741;28;20118;-61
2022/03/15 06:04:07;;;;;;;3.05;1.27;;;;;;;-1.72;54.55;101406.94;5102875;28;20170;-62
2022/03/15 06:06:36;;;;;;;4.07;1.70;;;;;;;-1.77;55.09;101400.69;5102852;28;20020;-60
2022/03/15 06:09:03;;;;;;;3.33;1.30;;;;;;;-1.79;54.68;101409.91;5102881;28;20386;-61
2022/03/15 06:11:32;;;;;;;1.65;1.45;;;;;;;-1.65;54.91;101414.09;5103404;28;20048;-61
2022/03/15 06:14:01;;;;;;;2.25;1.42;;;;;;;-1.51;54.36;101409.81;5103087;28;20166;-62
2022/03/15 06:16:27;;;;;;;4.15;1.40;;;;;;;-1.58;54.22;101413.66;5103057;28;20091;-63
2022/03/15 06:18:53;;;;;;;3.47;1.60;;;;;;;-1.52;54.89;101413.13;5102196;28;20043;-61
2022/03/15 06:21:19;;;;;;;5.13;1.95;;;;;;;-1.34;55.15;101420.91;5103117;28;20027;-61
2022/03/15 06:23:44;;;;;;;2.05;1.40;;;;;;;-1.16;54.18;101427.78;5107178;28;20027;-61
2022/03/15 06:26:10;;;;;;;3.50;1.60;;;;;;;-0.26;52.52;101420.59;5107231;28;20190;-61
2022/03/15 06:31:20;;;;;;;2.40;1.50;;;;;;;1.50;48.39;101394.00;5107472;28;20089;-62
2022/03/15 06:33:47;;;;;;;2.30;1.60;;;;;;;1.89;46.44;101408.38;5107121;28;20317;-62
2022/03/15 06:36:15;;;;;;;5.30;1.80;;;;;;;2.13;45.01;101405.97;5107132;28;20249;-62
2022/03/15 06:38:41;;;;;;;2.13;1.50;;;;;;;1.35;46.14;101417.19;5107165;28;20031;-62
2022/03/15 06:41:09;;;;;;;2.10;1.60;;;;;;;1.28;46.51;101416.81;5107308;28;20020;-62
2022/03/15 06:43:34;;;;;;;3.00;1.67;;;;;;;2.18;45.62;101412.16;5106025;28;20081;-62
2022/03/15 06:46:00;;;;;;;5.95;1.52;;;;;;;1.70;45.32;101415.28;5107367;28;20251;-62
2022/03/15 06:48:26;;;;;;;3.90;1.60;;;;;;;1.88;45.84;101412.63;5107113;28;20039;-63
2022/03/15 06:50:53;;;;;;;5.25;1.60;;;;;;;2.71;44.22;101411.69;5106818;28;20217;-61
2022/03/15 06:53:18;;;;;;;3.15;1.58;;;;;;;3.76;42.86;101403.56;5106694;28;20313;-61
2022/03/15 06:55:44;;;;;;;3.42;1.42;;;;;;;4.49;41.58;101411.06;5106825;28;20032;-62
2022/03/15 06:58:10;;;;;;;2.03;1.42;;;;;;;4.78;39.72;101399.09;5106870;28;20024;-61
2022/03/15 07:00:35;;;;;;;3.13;1.45;;;;;;;3.88;40.36;101422.72;5106529;28;20034;-62
2022/03/15 07:03:01;;;;;;;5.95;1.75;;;;;;;4.35;40.42;101407.16;5106458;28;20089;-63
2022/03/15 07:05:26;;;;;;;4.32;1.30;;;;;;;5.17;39.62;101403.69;5106692;28;20028;-63
2022/03/15 07:07:52;;;;;;;7.55;1.90;;;;;;;5.81;38.75;101406.25;5100840;28;20078;-63
2022/03/15 07:10:19;;;;;;;11.82;2.00;;;;;;;5.97;37.54;101401.50;5086045;28;20024;-62
2022/03/15 07:12:45;;;;;;;6.05;1.98;;;;;;;6.23;36.84;101404.78;5086473;28;20035;-62
2022/03/15 07:15:11;;;;;;;3.05;1.90;;;;;;;6.59;36.71;101400.44;5085991;28;20117;-61
2022/03/15 07:17:37;;;;;;;10.23;2.17;;;;;;;6.85;35.71;101408.75;5084877;28;20032;-62
2022/03/15 07:20:03;;;;;;;3.08;1.20;;;;;;;6.41;35.02;101408.59;5086075;28;20031;-63
2022/03/15 07:22:29;;;;;;;4.18;1.42;;;;;;;5.86;35.54;101414.09;5086104;28;20028;-62
2022/03/15 07:24:55;;;;;;;3.65;1.67;;;;;;;6.09;35.41;101404.41;5086102;28;20051;-62
2022/03/15 07:27:21;;;;;;;5.22;1.50;;;;;;;6.92;34.85;101400.31;5086121;28;20063;-62
2022/03/15 07:29:46;;;;;;;3.60;1.65;;;;;;;6.83;34.52;101392.41;5084449;28;20243;-61
2022/03/15 07:32:12;;;;;;;2.75;1.23;;;;;;;7.19;34.15;101394.00;5101086;28;20039;-61
2022/03/15 07:34:38;;;;;;;2.60;1.45;;;;;;;5.53;35.82;101394.38;5105540;28;20053;-62
2022/03/15 07:37:04;;;;;;;5.20;1.65;;;;;;;5.33;35.92;101394.69;5106047;28;20028;-60
2022/03/15 07:39:29;;;;;;;4.55;1.40;;;;;;;6.00;35.56;101392.22;5106028;28;20378;-61
2022/03/15 07:41:56;;;;;;;6.05;1.60;;;;;;;6.59;33.96;101403.88;5105647;28;20020;-62
2022/03/15 07:44:21;;;;;;;4.47;1.48;;;;;;;7.15;33.74;101387.03;5104749;28;20031;-62
2022/03/15 07:46:50;;;;;;;8.00;1.75;;;;;;;7.66;33.42;101401.78;5104587;28;20074;-62
2022/03/15 07:49:20;;;;;;;7.90;1.38;;;;;;;6.83;33.66;101400.13;5105710;28;20034;-61
2022/03/15 07:51:47;;;;;;;5.80;1.40;;;;;;;7.48;33.46;101389.44;5105691;28;20028;-60
2022/03/15 07:54:13;;;;;;;5.50;2.42;;;;;;;8.09;32.65;101396.50;5105488;28;20289;-61
2022/03/15 07:56:39;;;;;;;4.05;1.50;;;;;;;7.88;33.10;101402.16;5104255;28;20078;-61
2022/03/15 07:59:05;;;;;;;3.53;1.40;;;;;;;7.07;33.62;101392.91;5105404;28;20020;-61
2022/03/15 08:01:31;;;;;;;3.08;1.20;;;;;;;5.39;34.72;101403.38;5105368;28;20086;-60
2022/03/15 08:03:56;;;;;;;3.72;1.40;;;;;;;5.48;34.75;101407.09;5104350;28;20047;-61
2022/03/15 08:06:22;;;;;;;2.22;1.20;;;;;;;6.45;34.72;101408.69;5104197;28;20024;-62
2022/03/15 08:08:48;;;;;;;1.67;1.10;;;;;;;7.14;34.32;101405.91;5105178;28;20021;-61
2022/03/15 08:11:14;;;;;;;4.30;1.27;;;;;;;6.26;33.45;101409.97;5105142;28;20048;-61
2022/03/15 08:13:40;;;;;;;2.47;1.20;;;;;;;6.42;34.66;101402.63;5121061;28;20032;-62
2022/03/15 08:16:06;;;;;;;2.80;1.52;;;;;;;6.64;34.58;101409.13;5105247;28;20064;-62
2022/03/15 08:18:33;;;;;;;3.50;1.20;;;;;;;5.33;34.27;101399.84;5105230;28;20038;-60
2022/03/15 08:20:59;;;;;;;2.53;1.30;;;;;;;5.30;34.63;101404.00;5103906;28;20382;-60
2022/03/15 08:23:28;;;;;;;1.30;1.13;;;;;;;4.04;37.08;101412.16;5105229;28;20099;-60
2022/03/15 08:25:55;;;;;;;1.50;1.13;;;;;;;4.52;36.11;101407.69;5105069;28;20093;-60
2022/03/15 08:28:23;;;;;;;2.70;1.38;;;;;;;3.35;37.85;101407.19;5104959;28;20073;-61
2022/03/15 08:30:49;;;;;;;1.67;1.08;;;;;;;4.25;36.92;101401.75;5105076;28;20023;-62
2022/03/15 08:33:15;;;;;;;1.65;0.93;;;;;;;5.74;35.33;101377.78;5105029;28;20053;-61
2022/03/15 08:35:40;;;;;;;2.88;1.30;;;;;;;5.48;34.50;101393.38;5104960;28;20020;-60
2022/03/15 08:38:06;;;;;;;6.95;1.50;;;;;;;5.87;36.07;101395.25;5104764;28;20386;-61
2022/03/15 08:40:32;;;;;;;1.13;1.00;;;;;;;4.49;37.21;101401.66;5104733;28;20321;-60
2022/03/15 08:42:58;;;;;;;3.03;1.15;;;;;;;4.83;36.79;101394.09;5103423;28;20221;-60
2022/03/15 08:45:23;;;;;;;9.38;1.60;;;;;;;5.94;36.61;101386.00;5103629;28;20035;-61
2022/03/15 08:47:49;;;;;;;5.82;1.80;;;;;;;5.78;36.88;101389.88;5104569;28;20026;-61
2022/03/15 08:50:15;;;;;;;8.13;3.13;;;;;;;5.91;35.25;101386.78;5104422;28;20035;-61
2022/03/15 08:52:41;;;;;;;4.38;1.30;;;;;;;4.54;36.17;101403.50;5104311;28;20309;-62
2022/03/15 08:55:07;;;;;;;1.65;1.17;;;;;;;3.86;37.77;101402.16;5104206;28;20024;-61
2022/03/15 08:57:33;;;;;;;3.25;1.40;;;;;;;5.25;36.65;101391.03;5104266;28;20313;-60
2022/03/15 08:59:59;;;;;;;2.10;1.10;;;;;;;5.83;37.47;101384.03;5104236;28;20034;-60
2022/03/15 09:02:24;;;;;;;1.80;1.10;;;;;;;5.86;34.90;101391.81;5104372;28;20035;-61
2022/03/15 09:04:50;;;;;;;3.95;1.20;;;;;;;6.13;35.25;101383.09;5104369;28;20020;-60
2022/03/15 09:07:15;;;;;;;2.97;1.08;;;;;;;6.90;34.54;101395.13;5103748;28;20381;-61
2022/03/15 09:09:41;;;;;;;3.78;1.20;;;;;;;7.26;35.43;101396.72;5102853;28;20325;-61
2022/03/15 09:12:07;;;;;;;7.28;1.63;;;;;;;7.53;33.17;101390.38;5102919;28;20052;-60
2022/03/15 09:14:33;;;;;;;2.83;1.38;;;;;;;8.17;32.70;101391.50;5103883;28;20016;-61
2022/03/15 09:16:59;;;;;;;3.55;1.50;;;;;;;8.71;32.90;101382.84;5103746;28;20309;-60
2022/03/15 09:19:25;;;;;;;5.78;1.50;;;;;;;8.35;32.47;101391.78;5101348;28;20031;-60
2022/03/15 09:21:51;;;;;;;2.40;1.20;;;;;;;7.47;32.35;101386.78;5103400;28;20026;-61
2022/03/15 09:24:16;;;;;;;3.22;1.20;;;;;;;7.72;33.25;101386.41;5103817;28;20071;-60
2022/03/15 09:26:42;;;;;;;3.97;1.50;;;;;;;8.32;32.09;101383.97;5102468;28;20213;-62
2022/03/15 09:29:10;;;;;;;1.80;1.30;;;;;;;7.67;32.30;101372.59;5103305;28;20087;-61
2022/03/15 09:31:35;;;;;;;3.20;1.50;;;;;;;8.22;31.07;101376.91;5102209;28;20028;-61
2022/03/15 09:34:01;;;;;;;3.50;1.10;;;;;;;7.38;32.24;101388.38;5103405;28;20313;-61
2022/03/15 09:36:27;;;;;;;1.77;1.15;;;;;;;6.59;33.01;101400.44;5103314;28;20372;-61
2022/03/15 09:38:54;;;;;;;2.50;1.30;;;;;;;5.79;33.47;101332.50;5099603;28;20035;-60
2022/03/15 09:41:20;;;;;;;18.95;11.05;;;;;;;6.28;34.40;101395.44;5103243;28;20028;-62
2022/03/15 09:43:47;;;;;;;3.72;1.30;;;;;;;6.14;34.89;101394.25;5101929;28;20024;-61
2022/03/15 09:46:15;;;;;;;2.05;1.08;;;;;;;6.08;35.56;101388.94;5103300;28;20083;-62
2022/03/15 09:48:41;;;;;;;2.95;1.10;;;;;;;6.24;36.66;101393.63;5103501;28;20020;-62
2022/03/15 09:51:11;;;;;;;1.58;1.20;;;;;;;6.12;35.53;101389.06;5103380;28;20070;-61
2022/03/15 09:53:39;;;;;;;3.25;1.48;;;;;;;5.96;36.02;101386.94;5097096;28;20028;-62
2022/03/15 09:56:04;;;;;;;2.55;1.30;;;;;;;5.76;36.24;101396.66;5102292;28;20321;-61
2022/03/15 09:58:30;;;;;;;1.42;1.20;;;;;;;5.08;36.96;101399.97;5103651;28;20043;-61
2022/03/15 10:00:57;;;;;;;2.85;1.30;;;;;;;4.74;36.87;101370.75;5103340;28;20328;-60
2022/03/15 10:03:24;;;;;;;3.05;1.30;;;;;;;4.91;36.95;101390.06;5103466;28;20016;-61
2022/03/15 10:05:50;;;;;;;4.32;2.70;;;;;;;4.71;36.80;101392.03;5103532;28;20054;-61
2022/03/15 10:08:17;;;;;;;2.22;1.45;;;;;;;4.80;36.04;101392.34;5102048;28;20210;-61
2022/03/15 10:10:47;;;;;;;1.60;1.27;;;;;;;4.59;36.00;101354.06;5103092;28;20305;-61
2022/03/15 10:13:13;;;;;;;2.88;1.20;;;;;;;4.64;37.89;101390.97;5102002;28;20364;-61
2022/03/15 10:15:51;;;;;;;3.80;1.40;;;;;;;4.08;37.81;101328.56;5103298;28;20024;-61
2022/03/15 10:18:18;;;;;;;1.85;0.90;;;;;;;4.52;36.98;101388.06;5103372;28;20031;-61
2022/03/15 10:20:44;;;;;;;2.92;1.13;;;;;;;4.28;37.73;101390.72;5103206;28;20028;-61
2022/03/15 10:23:10;;;;;;;6.43;1.88;;;;;;;4.17;38.10;101394.63;5102027;28;20044;-63
2022/03/15 10:25:37;;;;;;;11.40;6.60;;;;;;;4.30;37.98;101391.63;5103252;28;20031;-63
2022/03/15 10:28:06;;;;;;;1.73;1.40;;;;;;;4.17;36.92;101381.81;5102107;28;20039;-61
2022/03/15 10:30:33;;;;;;;3.75;1.40;;;;;;;3.38;38.68;101394.53;5102071;28;20032;-61
2022/03/15 10:32:59;;;;;;;2.17;1.30;;;;;;;3.73;37.77;101398.31;5103229;28;20043;-61
2022/03/15 10:35:31;;;;;;;1.80;1.20;;;;;;;2.72;38.30;101340.13;5103025;28;20088;-62
2022/03/15 10:37:57;;;;;;;1.75;1.30;;;;;;;3.03;38.93;101396.66;5102981;28;20081;-61
2022/03/15 10:40:44;;;;;;;3.53;1.30;;;;;;;3.72;39.10;101398.25;5103103;28;20087;-62
2022/03/15 10:43:17;;;;;;;1.63;1.30;;;;;;;3.97;38.62;101384.59;5102936;28;20036;-61
2022/03/15 10:46:04;;;;;;;5.43;1.67;;;;;;;4.08;40.20;101372.13;5102836;28;20020;-61
2022/03/15 10:48:32;;;;;;;3.60;2.30;;;;;;;3.97;38.03;101348.69;5100896;28;20043;-61
2022/03/15 10:51:11;;;;;;;2.70;1.25;;;;;;;4.01;37.24;101380.44;5102787;28;20036;-62
2022/03/15 10:53:39;;;;;;;5.72;1.10;;;;;;;3.35;37.37;101379.94;5102438;28;20095;-62
2022/03/15 10:56:31;;;;;;;1.55;1.00;;;;;;;3.71;37.57;101381.16;5102970;28;20028;-63
2022/03/15 10:59:01;;;;;;;;;;;;;;;4.02;37.05;101382.16;5081461;28;20094;-63
2022/03/15 11:01:29;;;;;;;2.72;1.38;;;;;;;4.02;37.14;101393.31;5080912;28;19904;-63
2022/03/15 11:03:57;;;;;;;3.30;1.38;;;;;;;3.66;37.43;101318.63;5063617;28;20044;-62
2022/03/15 11:06:40;;;;;;;1.92;1.02;;;;;;;3.60;36.73;101363.69;5080642;28;20343;-62
2022/03/15 11:09:29;;;;;;;2.97;1.23;;;;;;;3.95;36.77;101376.84;5083173;28;20047;-62
2022/03/15 11:12:06;;;;;;;3.88;1.40;;;;;;;4.04;36.94;101375.41;5084444;28;20099;-61
2022/03/15 11:14:40;;;;;;;1.30;1.20;;;;;;;3.88;37.31;101362.09;5067738;28;20028;-62
2022/03/15 11:17:14;;;;;;;3.08;1.23;;;;;;;3.88;37.82;101367.22;5067764;28;20064;-63
2022/03/15 11:19:45;;;;;;;1.52;1.42;;;;;;;3.70;36.33;101354.63;5084432;28;20329;-65
2022/03/15 11:22:14;;;;;;;3.15;1.33;;;;;;;3.79;35.86;101372.00;5084314;28;20087;-62
2022/03/15 11:24:43;;;;;;;3.45;1.27;;;;;;;3.61;36.43;101334.72;5084183;28;20028;-63
2022/03/15 11:27:14;;;;;;;1.08;0.90;;;;;;;4.04;35.27;101366.03;5067491;28;20302;-63
2022/03/15 11:29:40;;;;;;;1.42;1.10;;;;;;;4.18;35.58;101374.16;5083904;28;20044;-63
2022/03/15 11:32:07;;;;;;;1.50;1.15;;;;;;;3.39;35.23;101366.41;5082468;28;20036;-62